Time;durP1;ratioP1;P1;durP2;ratioP2;P2;SDS_P1;SDS_P2;PMS_P1;PMS_P2;Temp;Humidity;BMP_temperature;BMP_pressure;BME280_temperature;BME280_humidity;BME280_pressure;Samples;Min_cycle;Max_cycle;Signal;HPM_P1;HPM_P2
2023/09/18 00:02:12;;;;;;;22.65;17.08;;;17.60;99.90;;;;;;6211490;23;20036;-68
2023/09/18 00:04:37;;;;;;;23.98;17.25;;;17.60;99.90;;;;;;6211887;23;20071;-68
2023/09/18 00:07:03;;;;;;;21.35;15.82;;;17.50;99.90;;;;;;6211610;23;20112;-68
2023/09/18 00:09:29;;;;;;;24.50;17.40;;;17.50;99.90;;;;;;6211890;23;20017;-68
2023/09/18 00:11:54;;;;;;;22.95;16.98;;;17.50;99.90;;;;;;6211746;23;20437;-68
2023/09/18 00:14:20;;;;;;;20.50;17.67;;;17.50;99.90;;;;;;6211873;23;20187;-68
2023/09/18 00:16:46;;;;;;;20.55;16.95;;;17.60;99.90;;;;;;6184534;23;20052;-68
2023/09/18 00:19:11;;;;;;;22.60;17.48;;;17.50;99.90;;;;;;6211702;23;20020;-68
2023/09/18 00:21:37;;;;;;;25.40;17.80;;;17.50;99.90;;;;;;6184615;23;20400;-68
2023/09/18 00:24:03;;;;;;;19.60;15.50;;;17.50;99.90;;;;;;6184323;23;20381;-68
2023/09/18 00:26:29;;;;;;;21.50;16.88;;;17.50;99.90;;;;;;6184468;23;20028;-68
2023/09/18 00:28:55;;;;;;;20.90;15.95;;;17.40;99.90;;;;;;6211513;23;20012;-68
2023/09/18 00:31:20;;;;;;;20.55;15.98;;;17.40;99.90;;;;;;6159369;23;20020;-68
2023/09/18 00:33:46;;;;;;;21.30;15.52;;;17.40;99.90;;;;;;6211732;23;20099;-68
2023/09/18 00:36:12;;;;;;;23.52;18.15;;;17.40;99.90;;;;;;6211036;23;20023;-68
2023/09/18 00:38:37;;;;;;;26.58;17.92;;;17.40;99.90;;;;;;6184326;23;20044;-68
2023/09/18 00:41:03;;;;;;;25.83;19.13;;;17.50;99.90;;;;;;6211658;23;20448;-68
2023/09/18 00:43:29;;;;;;;25.45;20.35;;;17.40;99.90;;;;;;6184306;23;20031;-68
2023/09/18 00:45:54;;;;;;;28.63;21.25;;;17.50;99.90;;;;;;6210986;23;20048;-68
2023/09/18 00:48:20;;;;;;;31.30;22.13;;;17.50;99.90;;;;;;6211301;23;20016;-68
2023/09/18 00:50:48;;;;;;;32.55;23.33;;;17.60;99.90;;;;;;6211261;23;20024;-68
2023/09/18 00:53:20;;;;;;;30.05;23.42;;;17.70;99.90;;;;;;6210921;23;20020;-68
2023/09/18 00:55:46;;;;;;;31.88;22.33;;;17.70;99.90;;;;;;6211231;23;20020;-68
2023/09/18 00:58:12;;;;;;;30.15;22.90;;;17.70;99.90;;;;;;6210465;23;20333;-68
2023/09/18 01:00:38;;;;;;;27.88;21.90;;;17.70;99.90;;;;;;6210955;23;20024;-68
2023/09/18 01:03:04;;;;;;;28.92;20.67;;;17.70;99.90;;;;;;6210748;23;20356;-68
2023/09/18 01:05:34;;;;;;;29.38;22.25;;;17.70;99.90;;;;;;6211149;23;20017;-68
2023/09/18 01:07:59;;;;;;;30.95;21.85;;;17.70;99.90;;;;;;6210901;23;20087;-68
2023/09/18 01:10:31;;;;;;;26.00;21.08;;;17.70;99.90;;;;;;6210915;23;20484;-67
2023/09/18 01:13:13;;;;;;;26.88;21.02;;;17.80;99.90;;;;;;6211402;23;20020;-68
2023/09/18 01:15:54;;;;;;;28.20;21.17;;;17.70;99.90;;;;;;6184923;23;20013;-68
2023/09/18 01:18:19;;;;;;;26.55;20.02;;;17.70;99.90;;;;;;6211554;23;20298;-68
2023/09/18 01:20:45;;;;;;;25.27;19.73;;;17.70;99.90;;;;;;6211312;23;20023;-68
2023/09/18 01:23:14;;;;;;;26.52;21.25;;;17.70;99.90;;;;;;6211673;23;20024;-68
2023/09/18 01:25:39;;;;;;;26.45;19.92;;;17.70;99.90;;;;;;6211648;23;20024;-68
2023/09/18 01:28:05;;;;;;;27.95;21.50;;;17.70;99.90;;;;;;6210914;23;20052;-68
2023/09/18 01:30:31;;;;;;;26.38;20.65;;;17.70;99.90;;;;;;6211209;23;20669;-68
2023/09/18 01:32:58;;;;;;;29.02;20.00;;;17.60;99.90;;;;;;6210635;23;20016;-68
2023/09/18 01:35:29;;;;;;;29.48;21.25;;;17.60;99.90;;;;;;6210604;23;20027;-67
2023/09/18 01:37:57;;;;;;;23.58;18.08;;;17.70;99.90;;;;;;6211374;23;20047;-68
2023/09/18 01:40:24;;;;;;;25.48;18.85;;;17.60;99.90;;;;;;6211219;23;20091;-68
2023/09/18 01:42:50;;;;;;;24.23;18.75;;;17.60;99.90;;;;;;6210193;23;20017;-68
2023/09/18 01:45:16;;;;;;;23.33;18.40;;;17.60;99.90;;;;;;6210423;23;20139;-68
2023/09/18 01:47:42;;;;;;;25.05;19.58;;;17.60;99.90;;;;;;6210498;23;20032;-68
2023/09/18 01:50:08;;;;;;;23.60;19.38;;;17.60;99.90;;;;;;6210425;23;20078;-68
2023/09/18 01:52:37;;;;;;;24.70;19.35;;;17.60;99.90;;;;;;6210887;23;20084;-67
2023/09/18 01:55:07;;;;;;;24.48;19.77;;;17.60;99.90;;;;;;6210438;23;20016;-68
2023/09/18 01:57:33;;;;;;;27.58;18.98;;;17.70;99.90;;;;;;6210220;23;20061;-68
2023/09/18 01:59:59;;;;;;;23.00;18.13;;;17.70;99.90;;;;;;6210764;23;20017;-67
2023/09/18 02:02:24;;;;;;;27.13;19.10;;;17.70;99.90;;;;;;6210601;23;20100;-68
2023/09/18 02:04:50;;;;;;;26.98;18.10;;;17.70;99.90;;;;;;6210181;23;20497;-68
2023/09/18 02:07:16;;;;;;;23.38;17.70;;;17.60;99.90;;;;;;6210562;23;20017;-68
2023/09/18 02:09:41;;;;;;;26.50;19.27;;;17.70;99.90;;;;;;6210820;23;20017;-67
2023/09/18 02:12:07;;;;;;;26.73;18.77;;;17.70;99.90;;;;;;6212332;23;20024;-68
2023/09/18 02:14:33;;;;;;;25.30;19.10;;;17.70;99.90;;;;;;6212687;23;20013;-68
2023/09/18 02:16:59;;;;;;;27.02;19.30;;;17.70;99.90;;;;;;6212557;23;20029;-68
2023/09/18 02:19:26;;;;;;;23.27;17.38;;;17.70;99.90;;;;;;6212226;23;20471;-67
2023/09/18 02:21:52;;;;;;;22.55;16.63;;;17.70;99.90;;;;;;6186111;23;20016;-68
2023/09/18 02:24:19;;;;;;;26.13;17.88;;;17.70;99.90;;;;;;6212010;23;20017;-68
2023/09/18 02:26:45;;;;;;;22.95;17.75;;;17.70;99.90;;;;;;6211981;23;20025;-68
2023/09/18 02:29:13;;;;;;;23.13;16.90;;;17.70;99.90;;;;;;6212536;23;20020;-68
2023/09/18 02:31:39;;;;;;;26.42;18.45;;;17.70;99.90;;;;;;6185646;23;20195;-68
2023/09/18 02:34:05;;;;;;;22.70;17.70;;;17.70;99.90;;;;;;6212127;23;20071;-68
2023/09/18 02:36:30;;;;;;;22.20;17.15;;;17.70;99.90;;;;;;6185436;23;20028;-68
2023/09/18 02:38:56;;;;;;;21.40;16.88;;;17.70;99.90;;;;;;6212124;23;20345;-68
2023/09/18 02:41:22;;;;;;;21.52;16.58;;;17.70;99.90;;;;;;6212315;23;20025;-68
2023/09/18 02:43:47;;;;;;;21.63;16.02;;;17.70;99.90;;;;;;6212336;23;20368;-68
2023/09/18 02:46:13;;;;;;;23.23;16.52;;;17.70;99.90;;;;;;6185404;23;20019;-68
2023/09/18 02:48:39;;;;;;;23.88;15.75;;;17.70;99.90;;;;;;6185149;23;20021;-67
2023/09/18 02:51:05;;;;;;;23.67;15.88;;;17.70;99.90;;;;;;6212388;23;20013;-67
2023/09/18 02:53:31;;;;;;;22.33;15.43;;;17.70;99.90;;;;;;6212686;23;20047;-68
2023/09/18 02:55:58;;;;;;;20.95;15.48;;;17.70;99.90;;;;;;6212222;23;20024;-68
2023/09/18 02:58:25;;;;;;;19.35;15.02;;;17.70;99.90;;;;;;6185462;23;20356;-68
2023/09/18 03:00:57;;;;;;;23.65;16.20;;;17.70;99.90;;;;;;6212436;23;20052;-68
2023/09/18 03:03:23;;;;;;;19.67;14.93;;;17.70;99.90;;;;;;6212141;23;20083;-68
2023/09/18 03:05:48;;;;;;;19.38;14.45;;;17.70;99.90;;;;;;6212106;23;20024;-68
2023/09/18 03:08:15;;;;;;;19.13;15.18;;;17.60;99.90;;;;;;6212192;23;20055;-68
2023/09/18 03:10:42;;;;;;;17.73;14.90;;;17.60;99.90;;;;;;6212082;23;20020;-68
2023/09/18 03:13:10;;;;;;;19.65;14.38;;;17.60;99.90;;;;;;6212185;23;20445;-68
2023/09/18 03:15:36;;;;;;;20.00;15.45;;;17.60;99.90;;;;;;6212078;23;20021;-67
2023/09/18 03:18:04;;;;;;;21.80;14.75;;;17.60;99.90;;;;;;6212383;23;20025;-68
2023/09/18 03:20:30;;;;;;;18.95;14.40;;;17.60;99.90;;;;;;6212036;23;20144;-68
2023/09/18 03:22:58;;;;;;;19.95;14.07;;;17.60;99.90;;;;;;6211584;23;20017;-68
2023/09/18 03:25:24;;;;;;;23.58;14.38;;;17.60;99.90;;;;;;6211735;23;20016;-68
2023/09/18 03:27:52;;;;;;;20.05;13.43;;;17.60;99.90;;;;;;6211891;23;20017;-68
2023/09/18 03:30:21;;;;;;;18.95;13.90;;;17.70;99.90;;;;;;6211610;23;20016;-68
2023/09/18 03:32:50;;;;;;;18.63;13.80;;;17.70;99.90;;;;;;6210024;23;20063;-68
2023/09/18 03:35:19;;;;;;;21.67;13.88;;;17.70;99.90;;;;;;6211497;23;20024;-68
2023/09/18 03:37:46;;;;;;;20.52;13.82;;;17.80;99.90;;;;;;6211874;23;20333;-68
2023/09/18 03:40:12;;;;;;;21.83;13.88;;;17.80;99.90;;;;;;6211723;23;20020;-67
2023/09/18 03:42:37;;;;;;;20.30;12.80;;;17.80;99.90;;;;;;6211784;23;20016;-68
2023/09/18 03:45:06;;;;;;;18.67;13.30;;;17.80;99.90;;;;;;6160078;23;20624;-68
2023/09/18 03:47:32;;;;;;;17.08;12.40;;;17.80;99.90;;;;;;6211856;23;20024;-68
2023/09/18 03:49:57;;;;;;;19.25;12.77;;;17.80;99.90;;;;;;6211436;23;20020;-68
2023/09/18 03:52:23;;;;;;;18.13;13.27;;;17.80;99.90;;;;;;6211282;23;20027;-68
2023/09/18 03:54:49;;;;;;;18.48;12.85;;;17.80;99.90;;;;;;6184398;23;20475;-68
2023/09/18 03:57:15;;;;;;;17.63;12.73;;;17.80;99.90;;;;;;6211196;23;20021;-68
2023/09/18 03:59:40;;;;;;;19.58;12.18;;;17.80;99.90;;;;;;6212062;23;20021;-68
2023/09/18 04:02:06;;;;;;;16.25;11.45;;;17.80;99.90;;;;;;6211423;23;20020;-68
2023/09/18 04:04:32;;;;;;;15.48;12.38;;;17.90;99.90;;;;;;6211512;23;20052;-68
2023/09/18 04:06:58;;;;;;;18.88;12.15;;;17.90;99.90;;;;;;6211107;23;20472;-68
2023/09/18 04:09:23;;;;;;;18.42;11.77;;;17.90;99.90;;;;;;6211388;23;20020;-68
2023/09/18 04:11:49;;;;;;;16.65;11.82;;;17.80;99.90;;;;;;6211062;23;20487;-68
2023/09/18 04:14:15;;;;;;;15.35;11.80;;;17.90;99.90;;;;;;6211589;23;20017;-68
2023/09/18 04:16:42;;;;;;;14.68;11.65;;;17.90;99.90;;;;;;6211541;23;20445;-68
2023/09/18 04:19:09;;;;;;;17.13;11.40;;;17.90;99.90;;;;;;6211491;23;20013;-68
2023/09/18 04:21:35;;;;;;;18.73;10.65;;;17.80;99.90;;;;;;6211387;23;20047;-68
2023/09/18 04:24:01;;;;;;;19.88;11.00;;;17.80;99.90;;;;;;6183939;23;20024;-68
2023/09/18 04:26:31;;;;;;;18.42;10.77;;;17.80;99.90;;;;;;6211280;23;20051;-68
2023/09/18 04:28:57;;;;;;;16.50;11.63;;;17.80;99.90;;;;;;6211360;23;20028;-68
2023/09/18 04:31:23;;;;;;;17.00;12.07;;;17.80;99.90;;;;;;6210842;23;20017;-68
2023/09/18 04:33:49;;;;;;;18.65;11.65;;;17.80;99.90;;;;;;6211256;23;20099;-68
2023/09/18 04:36:15;;;;;;;16.35;11.38;;;17.80;99.90;;;;;;6184305;23;20020;-68
2023/09/18 04:38:41;;;;;;;15.65;11.52;;;17.80;99.90;;;;;;6184338;23;20025;-68
2023/09/18 04:41:07;;;;;;;15.52;11.55;;;17.80;99.90;;;;;;6210711;23;20052;-68
2023/09/18 04:43:36;;;;;;;14.32;11.70;;;17.80;99.90;;;;;;6211350;23;20083;-68
2023/09/18 04:46:04;;;;;;;14.45;11.52;;;17.80;99.90;;;;;;6184014;23;20079;-68
2023/09/18 04:48:30;;;;;;;19.27;11.77;;;17.80;99.90;;;;;;6210763;23;20008;-68
2023/09/18 04:50:57;;;;;;;17.60;11.60;;;17.80;99.90;;;;;;6210619;23;20441;-68
2023/09/18 04:53:23;;;;;;;17.83;11.65;;;17.80;99.90;;;;;;6210761;23;20079;-68
2023/09/18 04:55:50;;;;;;;17.60;11.88;;;17.80;99.90;;;;;;6210949;23;20017;-68
2023/09/18 04:58:16;;;;;;;16.38;11.48;;;17.80;99.90;;;;;;6210643;23;20090;-68
2023/09/18 05:00:42;;;;;;;21.23;12.10;;;17.80;99.90;;;;;;6211106;23;20016;-68
2023/09/18 05:03:09;;;;;;;17.17;11.30;;;17.80;99.90;;;;;;6210816;23;20024;-68
2023/09/18 05:05:35;;;;;;;15.32;11.35;;;17.80;99.90;;;;;;6210887;23;20407;-68
2023/09/18 05:08:10;;;;;;;18.08;11.43;;;17.80;99.90;;;;;;6210782;23;20021;-68
2023/09/18 05:10:37;;;;;;;15.68;11.40;;;17.80;99.90;;;;;;6184482;23;20345;-68
2023/09/18 05:13:03;;;;;;;20.33;11.68;;;17.90;99.90;;;;;;6210842;23;20029;-67
2023/09/18 05:15:29;;;;;;;17.80;10.88;;;17.90;99.90;;;;;;6211088;23;20051;-69
2023/09/18 05:17:57;;;;;;;16.40;11.25;;;17.90;99.90;;;;;;6211075;23;20039;-69
2023/09/18 05:20:27;;;;;;;19.02;11.38;;;17.90;99.90;;;;;;6210590;23;20017;-68
2023/09/18 05:22:54;;;;;;;15.73;11.32;;;17.90;99.90;;;;;;6210680;23;20028;-68
2023/09/18 05:25:22;;;;;;;16.13;11.05;;;17.90;99.90;;;;;;6210506;23;20118;-68
2023/09/18 05:27:49;;;;;;;20.13;10.50;;;17.90;99.90;;;;;;6159114;23;20016;-68
2023/09/18 05:30:20;;;;;;;18.27;11.18;;;17.90;99.90;;;;;;6210670;23;20091;-68
2023/09/18 05:32:47;;;;;;;14.60;9.82;;;17.90;99.90;;;;;;6210372;23;20020;-67
2023/09/18 05:35:14;;;;;;;14.07;10.32;;;17.90;99.90;;;;;;6183467;23;20052;-68
2023/09/18 05:37:41;;;;;;;14.45;10.02;;;17.90;99.90;;;;;;6210277;23;20020;-68
2023/09/18 05:40:09;;;;;;;18.00;10.10;;;18.00;99.90;;;;;;6210602;23;20016;-68
2023/09/18 05:42:39;;;;;;;18.83;10.32;;;18.00;99.90;;;;;;6210712;23;20023;-67
2023/09/18 05:45:05;;;;;;;12.55;9.23;;;18.00;99.90;;;;;;6210335;23;20024;-68
2023/09/18 05:47:35;;;;;;;14.57;10.25;;;18.00;99.90;;;;;;6210468;23;20024;-67
2023/09/18 05:50:05;;;;;;;16.50;10.23;;;18.00;99.90;;;;;;6210725;23;20126;-68
2023/09/18 05:52:33;;;;;;;14.30;9.15;;;18.00;99.90;;;;;;6210876;23;20021;-68
2023/09/18 05:54:59;;;;;;;16.17;10.13;;;18.00;99.90;;;;;;6210661;23;20028;-68
2023/09/18 05:57:27;;;;;;;14.70;9.93;;;18.00;99.90;;;;;;6210271;23;20086;-68
2023/09/18 05:59:56;;;;;;;13.85;9.82;;;18.00;99.90;;;;;;6210727;23;20091;-68
2023/09/18 06:02:22;;;;;;;14.82;9.77;;;18.00;99.90;;;;;;6210393;23;20543;-68
2023/09/18 06:04:48;;;;;;;16.73;10.02;;;18.10;99.90;;;;;;6211888;23;20032;-69
2023/09/18 06:07:14;;;;;;;11.77;9.02;;;18.10;99.90;;;;;;6210523;23;20031;-68
2023/09/18 06:09:40;;;;;;;15.73;9.82;;;18.30;99.90;;;;;;6211177;23;20016;-68
2023/09/18 06:12:07;;;;;;;13.90;8.95;;;18.40;99.90;;;;;;6210578;23;20055;-67
2023/09/18 06:14:37;;;;;;;11.38;9.27;;;18.30;99.90;;;;;;6184003;23;20436;-68
2023/09/18 06:17:04;;;;;;;13.57;8.77;;;18.30;99.90;;;;;;6211007;23;20035;-68
2023/09/18 06:19:30;;;;;;;12.20;9.00;;;18.30;99.90;;;;;;6210703;23;20055;-68
2023/09/18 06:21:56;;;;;;;11.43;8.45;;;18.30;99.90;;;;;;6184310;23;20405;-68
2023/09/18 06:24:21;;;;;;;11.73;8.25;;;18.40;99.90;;;;;;6184288;23;20060;-68
2023/09/18 06:26:47;;;;;;;14.70;8.35;;;18.40;99.90;;;;;;6211534;23;20392;-67
2023/09/18 06:29:13;;;;;;;13.80;7.65;;;18.40;99.90;;;;;;6211221;23;20079;-68
2023/09/18 06:31:39;;;;;;;16.67;7.60;;;18.40;99.90;;;;;;6210613;23;20047;-67
2023/09/18 06:34:05;;;;;;;12.98;7.63;;;18.40;99.90;;;;;;6183711;23;20032;-68
2023/09/18 06:36:30;;;;;;;11.35;7.38;;;18.50;99.90;;;;;;6210599;23;20024;-67
2023/09/18 06:38:56;;;;;;;12.85;7.88;;;18.50;99.90;;;;;;6210921;23;20392;-68
2023/09/18 06:41:22;;;;;;;12.07;7.88;;;18.50;99.90;;;;;;6211148;23;20079;-68
2023/09/18 06:43:47;;;;;;;15.43;8.05;;;18.60;99.90;;;;;;6211017;23;20024;-67
2023/09/18 06:46:13;;;;;;;15.70;7.40;;;18.60;99.90;;;;;;6211213;23;20013;-68
2023/09/18 06:48:39;;;;;;;20.60;7.88;;;18.60;99.90;;;;;;6210906;23;20092;-67
2023/09/18 06:51:06;;;;;;;14.15;8.43;;;18.70;99.90;;;;;;6210953;23;20059;-67
2023/09/18 06:53:31;;;;;;;20.63;9.95;;;18.70;99.90;;;;;;6210556;23;20492;-66
2023/09/18 06:55:57;;;;;;;17.02;10.00;;;18.70;99.90;;;;;;6210718;23;20024;-69
2023/09/18 06:58:23;;;;;;;18.30;11.13;;;18.70;99.90;;;;;;6212423;23;20384;-68
2023/09/18 07:00:50;;;;;;;17.30;10.88;;;18.60;99.90;;;;;;6185517;23;20483;-69
2023/09/18 07:03:17;;;;;;;16.83;11.10;;;18.60;99.90;;;;;;6211816;23;20142;-68
2023/09/18 07:05:43;;;;;;;21.45;11.05;;;18.50;99.90;;;;;;6212424;23;20344;-69
2023/09/18 07:08:11;;;;;;;22.40;11.18;;;18.50;99.90;;;;;;6212157;23;20096;-67
2023/09/18 07:10:37;;;;;;;18.30;10.77;;;18.50;99.90;;;;;;6185505;23;20423;-71
2023/09/18 07:13:03;;;;;;;17.00;10.93;;;18.50;99.90;;;;;;6212184;23;20356;-70
2023/09/18 07:15:29;;;;;;;24.92;11.07;;;18.50;99.90;;;;;;6212048;23;20032;-68
2023/09/18 07:17:55;;;;;;;19.45;11.85;;;18.50;99.90;;;;;;6185431;23;20016;-67
2023/09/18 07:20:22;;;;;;;16.90;11.13;;;18.50;99.90;;;;;;6212056;23;20035;-67
2023/09/18 07:22:48;;;;;;;19.58;11.55;;;18.50;99.90;;;;;;6212086;23;20476;-67
2023/09/18 07:25:15;;;;;;;15.40;10.98;;;18.50;99.90;;;;;;6185254;23;20021;-67
2023/09/18 07:27:44;;;;;;;17.08;10.82;;;18.50;99.90;;;;;;6212070;23;20488;-67
2023/09/18 07:30:17;;;;;;;20.63;11.07;;;18.60;99.90;;;;;;6212267;23;20012;-66
2023/09/18 07:32:43;;;;;;;16.83;11.20;;;18.60;99.90;;;;;;6212187;23;20456;-67
2023/09/18 07:35:10;;;;;;;18.10;10.60;;;18.60;99.90;;;;;;6211962;23;20031;-67
2023/09/18 07:37:36;;;;;;;13.32;10.63;;;18.70;99.90;;;;;;6212013;23;20031;-67
2023/09/18 07:40:05;;;;;;;20.35;11.63;;;18.70;99.90;;;;;;6211803;23;20031;-67
2023/09/18 07:42:32;;;;;;;16.95;12.05;;;18.70;99.90;;;;;;6212332;23;20070;-67
2023/09/18 07:44:58;;;;;;;18.02;11.98;;;18.70;99.90;;;;;;6211964;23;20028;-67
2023/09/18 07:47:23;;;;;;;18.35;11.95;;;18.70;99.90;;;;;;6211917;23;20123;-67
2023/09/18 07:49:50;;;;;;;18.50;12.82;;;18.70;99.90;;;;;;6212259;23;20460;-67
2023/09/18 07:52:16;;;;;;;19.75;13.05;;;18.70;99.90;;;;;;6185288;23;20115;-67
2023/09/18 07:54:43;;;;;;;22.60;12.38;;;18.70;99.90;;;;;;6211997;23;20407;-67
2023/09/18 07:57:09;;;;;;;18.85;13.43;;;18.70;99.90;;;;;;6211348;23;20449;-67
2023/09/18 07:59:36;;;;;;;22.15;13.00;;;18.70;99.90;;;;;;6185020;23;20024;-67
2023/09/18 08:02:02;;;;;;;16.05;11.43;;;18.70;99.90;;;;;;6211791;23;20357;-67
2023/09/18 08:04:30;;;;;;;21.80;12.75;;;18.70;99.90;;;;;;6211887;23;20027;-67
2023/09/18 08:06:56;;;;;;;25.40;13.43;;;18.80;99.90;;;;;;6211982;23;20039;-67
2023/09/18 08:09:22;;;;;;;17.48;11.38;;;18.80;99.90;;;;;;6211593;23;20083;-67
2023/09/18 08:11:49;;;;;;;17.23;11.60;;;18.80;99.90;;;;;;6211724;23;20016;-67
2023/09/18 08:14:16;;;;;;;17.02;10.52;;;18.80;99.90;;;;;;6211472;23;20484;-68
2023/09/18 08:16:42;;;;;;;15.55;11.00;;;18.80;99.90;;;;;;6212021;23;20056;-67
2023/09/18 08:19:09;;;;;;;15.27;11.13;;;18.80;99.90;;;;;;6211503;23;20013;-67
2023/09/18 08:21:35;;;;;;;17.27;11.77;;;18.90;99.90;;;;;;6184894;23;20051;-67
2023/09/18 08:24:00;;;;;;;18.27;11.80;;;18.80;99.90;;;;;;6211332;23;20020;-67
2023/09/18 08:26:28;;;;;;;16.25;11.40;;;18.90;99.90;;;;;;6211823;23;20036;-67
2023/09/18 08:28:54;;;;;;;18.05;12.32;;;18.90;99.90;;;;;;6211663;23;20131;-67
2023/09/18 08:31:20;;;;;;;24.73;12.80;;;18.90;99.90;;;;;;6212162;23;20020;-67
2023/09/18 08:33:45;;;;;;;20.58;13.00;;;18.90;99.90;;;;;;6211705;23;20685;-67
2023/09/18 08:36:12;;;;;;;22.75;12.57;;;18.90;99.90;;;;;;6185168;23;20024;-68
2023/09/18 08:38:38;;;;;;;22.92;13.93;;;18.90;99.90;;;;;;6211937;23;20008;-67
2023/09/18 08:41:05;;;;;;;21.92;13.13;;;18.90;99.90;;;;;;6211328;23;20427;-67
2023/09/18 08:43:32;;;;;;;25.48;14.85;;;18.90;99.90;;;;;;6211359;23;20034;-67
2023/09/18 08:46:01;;;;;;;16.98;12.57;;;19.00;99.90;;;;;;6211333;23;20405;-68
2023/09/18 08:48:35;;;;;;;20.52;14.05;;;19.00;99.90;;;;;;6184605;23;20504;-67
2023/09/18 08:51:10;;;;;;;26.92;13.73;;;19.00;99.90;;;;;;6211395;23;20013;-67
2023/09/18 08:53:36;;;;;;;21.10;13.65;;;19.00;99.90;;;;;;6211565;23;20020;-67
2023/09/18 08:56:04;;;;;;;22.60;14.23;;;19.10;99.90;;;;;;6211313;23;20016;-67
2023/09/18 08:58:33;;;;;;;22.70;14.30;;;19.10;99.90;;;;;;6183759;23;20031;-67
2023/09/18 09:01:01;;;;;;;18.42;12.90;;;19.10;99.90;;;;;;6210765;23;20531;-67
2023/09/18 09:03:27;;;;;;;21.27;13.82;;;19.20;99.90;;;;;;6210618;23;20020;-67
2023/09/18 09:05:53;;;;;;;19.65;14.07;;;19.20;99.90;;;;;;6210779;23;20100;-67
2023/09/18 09:08:18;;;;;;;22.13;13.60;;;19.20;99.90;;;;;;6211165;23;20052;-67
2023/09/18 09:10:44;;;;;;;24.92;13.25;;;19.30;99.90;;;;;;6211168;23;20024;-67
2023/09/18 09:13:10;;;;;;;23.48;13.35;;;19.30;99.90;;;;;;6210935;23;20149;-67
2023/09/18 09:15:47;;;;;;;23.88;13.82;;;19.30;99.90;;;;;;6184106;23;20412;-67
2023/09/18 09:18:17;;;;;;;16.80;13.60;;;19.30;99.90;;;;;;6210650;23;20064;-68
2023/09/18 09:21:00;;;;;;;17.35;12.60;;;19.30;99.90;;;;;;6210755;23;20044;-67
2023/09/18 09:23:28;;;;;;;22.35;13.07;;;19.40;99.90;;;;;;6211037;23;20027;-67
2023/09/18 09:26:12;;;;;;;19.15;13.50;;;19.40;99.90;;;;;;6184283;23;20017;-67
2023/09/18 09:28:38;;;;;;;19.42;12.95;;;19.50;99.90;;;;;;6210742;23;20052;-68
2023/09/18 09:31:04;;;;;;;15.68;12.57;;;19.50;99.90;;;;;;6211019;23;20016;-67
2023/09/18 09:33:30;;;;;;;22.83;11.98;;;19.40;99.90;;;;;;6210669;23;20024;-67
2023/09/18 09:35:56;;;;;;;18.48;11.73;;;19.50;99.90;;;;;;6211085;23;20113;-68
2023/09/18 09:38:31;;;;;;;14.40;11.70;;;19.50;99.90;;;;;;6211205;23;20078;-67
2023/09/18 09:40:59;;;;;;;17.67;11.10;;;19.60;99.90;;;;;;6184177;23;20388;-67
2023/09/18 09:43:26;;;;;;;16.40;10.98;;;19.60;99.90;;;;;;6184363;23;20024;-67
2023/09/18 09:46:00;;;;;;;16.75;10.93;;;19.70;99.90;;;;;;6211262;23;20107;-67
2023/09/18 09:48:26;;;;;;;19.77;10.35;;;19.70;99.90;;;;;;6184434;23;20028;-67
2023/09/18 09:50:57;;;;;;;16.10;10.05;;;19.80;99.90;;;;;;6211253;23;20024;-67
2023/09/18 09:53:43;;;;;;;15.38;9.38;;;19.80;99.90;;;;;;6211175;23;20027;-67
2023/09/18 09:56:08;;;;;;;16.27;9.23;;;19.80;99.90;;;;;;6210393;23;20082;-68
2023/09/18 09:58:34;;;;;;;16.55;9.43;;;19.90;99.90;;;;;;6210607;23;20052;-67
2023/09/18 10:01:08;;;;;;;16.40;8.63;;;19.90;99.90;;;;;;6210513;23;20045;-68
2023/09/18 10:03:36;;;;;;;14.77;9.48;;;19.90;99.90;;;;;;6210305;23;20024;-67
2023/09/18 10:06:05;;;;;;;10.90;8.25;;;19.90;99.90;;;;;;6183558;23;20033;-67
2023/09/18 10:08:32;;;;;;;11.50;7.55;;;20.00;99.90;;;;;;6183770;23;20020;-67
2023/09/18 10:11:11;;;;;;;9.90;7.40;;;19.90;99.90;;;;;;6183873;23;20275;-67
2023/09/18 10:14:01;;;;;;;9.65;7.32;;;20.00;99.90;;;;;;6210753;23;20016;-67
2023/09/18 10:16:31;;;;;;;11.30;7.40;;;19.90;99.90;;;;;;6210269;23;20390;-68
2023/09/18 10:18:59;;;;;;;11.60;6.40;;;20.00;99.90;;;;;;6210635;23;20117;-67
2023/09/18 10:21:43;;;;;;;11.43;6.28;;;20.00;99.90;;;;;;6210723;23;20055;-67
2023/09/18 10:24:15;;;;;;;10.13;6.93;;;20.10;99.90;;;;;;6210419;23;20348;-67
2023/09/18 10:27:00;;;;;;;11.20;6.45;;;20.10;99.90;;;;;;6210635;23;20052;-67
2023/09/18 10:29:28;;;;;;;12.57;6.10;;;20.20;99.90;;;;;;6210804;23;20016;-67
2023/09/18 10:31:54;;;;;;;8.30;5.55;;;20.20;99.90;;;;;;6211632;23;20479;-68
2023/09/18 10:34:23;;;;;;;8.25;5.88;;;20.20;99.90;;;;;;6212339;23;20341;-67
2023/09/18 10:36:51;;;;;;;8.48;6.20;;;20.20;99.90;;;;;;6212554;23;20084;-68
2023/09/18 10:39:23;;;;;;;9.63;5.22;;;20.30;99.90;;;;;;6212145;23;20155;-67
2023/09/18 10:41:52;;;;;;;7.55;5.70;;;20.40;99.90;;;;;;6212631;23;20013;-68
2023/09/18 10:44:18;;;;;;;8.68;5.68;;;20.40;99.90;;;;;;6212402;23;20024;-68
2023/09/18 10:46:48;;;;;;;8.45;5.30;;;20.40;99.90;;;;;;6212545;23;20040;-68
2023/09/18 10:49:18;;;;;;;9.32;5.60;;;20.50;99.90;;;;;;6212221;23;20028;-67
2023/09/18 10:51:45;;;;;;;6.90;4.85;;;20.70;99.90;;;;;;6213673;23;20012;-67
2023/09/18 10:54:15;;;;;;;5.40;4.57;;;20.60;99.90;;;;;;6212317;23;20028;-67
2023/09/18 10:56:44;;;;;;;6.47;4.20;;;20.70;99.90;;;;;;6212081;23;20019;-67
2023/09/18 10:59:10;;;;;;;8.02;3.97;;;20.70;99.90;;;;;;6212420;23;20016;-68
2023/09/18 11:01:36;;;;;;;7.88;4.18;;;20.70;99.90;;;;;;6185663;23;20624;-68
2023/09/18 11:04:07;;;;;;;4.78;4.03;;;20.80;99.90;;;;;;6211797;23;20032;-68
2023/09/18 11:07:21;;;;;;;3.90;3.17;;;20.90;99.90;;;;;;6185490;23;20580;-68
2023/09/18 11:09:48;;;;;;;8.00;4.13;;;20.90;99.90;;;;;;6061430;23;20090;-68
2023/09/18 11:12:16;;;;;;;4.85;3.38;;;21.00;99.90;;;;;;6061696;23;20019;-68
2023/09/18 11:14:54;;;;;;;5.35;3.65;;;21.00;99.90;;;;;;6144823;23;20089;-68
2023/09/18 11:17:34;;;;;;;7.05;3.58;;;21.00;99.90;;;;;;6211827;23;20103;-68
2023/09/18 11:20:09;;;;;;;5.72;3.42;;;21.00;99.90;;;;;;6212290;23;20020;-68
2023/09/18 11:22:40;;;;;;;4.10;3.25;;;21.00;99.90;;;;;;6211579;23;20063;-68
2023/09/18 11:25:53;;;;;;;3.95;2.97;;;21.00;99.90;;;;;;6212104;23;20008;-68
2023/09/18 11:28:25;;;;;;;;;;;20.90;99.90;;;;;;6212522;23;20021;-68
2023/09/18 11:30:56;;;;;;;;;;;20.90;99.90;;;;;;6212654;23;20295;-67
2023/09/18 11:33:40;;;;;;;4.75;2.53;;;20.90;99.90;;;;;;6212135;23;19923;-68
2023/09/18 11:36:12;;;;;;;5.78;2.67;;;20.90;99.90;;;;;;6212059;23;20088;-68
2023/09/18 11:38:55;;;;;;;4.07;2.45;;;20.90;99.90;;;;;;6211515;23;20020;-68
2023/09/18 11:41:26;;;;;;;4.50;2.58;;;20.80;99.90;;;;;;6212106;23;20062;-67
2023/09/18 11:43:52;;;;;;;3.35;2.40;;;20.90;99.90;;;;;;6211165;23;20271;-68
2023/09/18 11:46:20;;;;;;;7.72;2.80;;;20.80;99.90;;;;;;6212005;23;20096;-67
2023/09/18 11:48:53;;;;;;;6.30;2.58;;;20.90;99.90;;;;;;6211616;23;20016;-68
2023/09/18 11:51:23;;;;;;;13.23;3.40;;;21.00;99.90;;;;;;6185862;23;20051;-68
2023/09/18 11:53:53;;;;;;;4.28;2.67;;;21.00;99.90;;;;;;6211614;23;20017;-68
2023/09/18 11:56:19;;;;;;;5.03;2.00;;;21.10;99.90;;;;;;6211382;23;20110;-68
2023/09/18 11:58:49;;;;;;;4.55;2.63;;;21.20;99.90;;;;;;6209934;23;20020;-67
2023/09/18 12:01:15;;;;;;;5.10;2.00;;;21.30;99.90;;;;;;6185248;23;20009;-67
2023/09/18 12:03:41;;;;;;;4.30;1.90;;;21.40;99.90;;;;;;6211475;23;20107;-68
2023/09/18 12:06:09;;;;;;;3.20;1.95;;;21.50;99.90;;;;;;6211490;23;20028;-67
2023/09/18 12:08:35;;;;;;;3.90;2.15;;;21.40;99.90;;;;;;6211505;23;20005;-68
2023/09/18 12:11:05;;;;;;;3.28;2.10;;;21.30;99.90;;;;;;6211368;23;20119;-68
2023/09/18 12:13:31;;;;;;;3.30;2.33;;;21.30;99.90;;;;;;6211470;23;20020;-68
2023/09/18 12:16:04;;;;;;;2.80;2.00;;;21.10;99.90;;;;;;6211469;23;20099;-68
2023/09/18 12:18:38;;;;;;;3.88;2.28;;;21.10;99.90;;;;;;6184627;23;20024;-68
2023/09/18 12:21:06;;;;;;;3.97;2.28;;;21.10;99.90;;;;;;6211586;23;20012;-68
2023/09/18 12:23:43;;;;;;;3.50;1.80;;;21.10;99.90;;;;;;6211839;23;20032;-67
2023/09/18 12:26:13;;;;;;;4.05;2.20;;;21.00;99.90;;;;;;6211945;23;20020;-67
2023/09/18 12:28:40;;;;;;;4.50;2.38;;;21.00;99.90;;;;;;6211688;23;20016;-68
2023/09/18 12:31:09;;;;;;;4.18;2.25;;;21.10;99.90;;;;;;6212041;23;20017;-68
2023/09/18 12:33:40;;;;;;;7.03;2.05;;;21.20;99.90;;;;;;6211995;23;20075;-68
2023/09/18 12:36:07;;;;;;;4.53;2.20;;;21.10;99.90;;;;;;6211529;23;20024;-68
2023/09/18 12:38:34;;;;;;;2.58;2.05;;;21.00;99.90;;;;;;6211828;23;20077;-68